Montreal International (Mirabel) Airport


Codes: CYMX/YMX
Name: Montreal International (Mirabel) Airport
City: Montreal
Country: Canada
Elevation: 270 ft.
Wikipedia:

Photos at Montreal International (Mirabel) Airport


   Photos courtesy of SpottingLog. You can add your own sightings and photos by signing up for a free trial today.



C-GNLN, 05-Oct-2022
© Jeremy Francois

C-GTFF, 05-Oct-2022
© Jeremy Francois


Weather at Montreal International (Mirabel) Airport


Time (UTC)DescriptionTempratureWindCloud coverageVisibilityPressureHumidity
21-Feb-2024 03:00Scattered Clouds-12°C4 mph, NE26%10000m1033hPa86%
21-Feb-2024 06:00Broken Clouds-12°C4 mph, NE51%10000m1032hPa91%
21-Feb-2024 09:00Broken Clouds-12°C7 mph, NE67%10000m1031hPa95%
21-Feb-2024 12:00Broken Clouds-12°C7 mph, NE81%10000m1030hPa95%
21-Feb-2024 15:00Broken Clouds-7°C7 mph, E67%10000m1029hPa87%
21-Feb-2024 18:00Broken Clouds-2°C4 mph, E58%10000m1026hPa87%
21-Feb-2024 21:00Scattered Clouds0°C4 mph, E50%10000m1023hPa88%
22-Feb-2024 00:00Scattered Clouds-6°C2 mph, NE45%10000m1022hPa93%
22-Feb-2024 03:00Overcast Clouds-5°C2 mph, NE95%10000m1020hPa94%
22-Feb-2024 06:00Overcast Clouds-4°C2 mph, NE97%10000m1019hPa93%
22-Feb-2024 09:00Light Snow-3°C2 mph, E100%5425m1017hPa95%
22-Feb-2024 12:00Light Snow-4°C4 mph, NE100%10000m1014hPa97%
22-Feb-2024 15:00Overcast Clouds-0°C4 mph, NE100%10000m1012hPa90%
22-Feb-2024 18:00Overcast Clouds1°C4 mph, E100%10000m1009hPa93%
22-Feb-2024 21:00Light Rain0°C4 mph, NE100%10000m1006hPa97%
23-Feb-2024 00:00Overcast Clouds0°C4 mph, NE100%10000m1004hPa94%
23-Feb-2024 03:00Light Rain0°C4 mph, NE100%10000m1002hPa96%
23-Feb-2024 06:00Snow-0°C2 mph, E100%1420m999hPa99%
23-Feb-2024 09:00Snow-1°C2 mph, E100%98m996hPa99%
23-Feb-2024 12:00Light Snow-0°C2 mph, SW100%253m996hPa99%
23-Feb-2024 15:00Overcast Clouds0°C4 mph, SW100%34m995hPa99%
23-Feb-2024 18:00Overcast Clouds1°C7 mph, W100%47m995hPa99%
23-Feb-2024 21:00Overcast Clouds1°C11 mph, NW100%10000m996hPa90%
24-Feb-2024 00:00Overcast Clouds-5°C11 mph, NW99%10000m1001hPa79%
24-Feb-2024 03:00Broken Clouds-9°C9 mph, NW62%10000m1004hPa78%
24-Feb-2024 06:00Scattered Clouds-13°C9 mph, NW36%10000m1008hPa76%
24-Feb-2024 09:00Clear Sky-16°C9 mph, NW5%10000m1010hPa74%
24-Feb-2024 12:00Clear Sky-18°C9 mph, NW5%10000m1014hPa73%
24-Feb-2024 15:00Clear Sky-15°C9 mph, NW4%10000m1016hPa62%
24-Feb-2024 18:00Scattered Clouds-12°C9 mph, NW35%10000m1015hPa59%
24-Feb-2024 21:00Overcast Clouds-11°C11 mph, W100%10000m1015hPa60%
25-Feb-2024 00:00Overcast Clouds-13°C4 mph, SW86%10000m1017hPa84%
25-Feb-2024 03:00Scattered Clouds-13°C4 mph, SW40%10000m1017hPa89%
25-Feb-2024 06:00Scattered Clouds-13°C2 mph, SW45%10000m1017hPa89%
25-Feb-2024 09:00Scattered Clouds-13°C2 mph, SW30%10000m1016hPa92%
25-Feb-2024 12:00Scattered Clouds-11°C2 mph, SW50%10000m1015hPa91%
25-Feb-2024 15:00Broken Clouds-4°C11 mph, SW83%10000m1013hPa75%
25-Feb-2024 18:00Broken Clouds1°C11 mph, SW64%10000m1011hPa67%
25-Feb-2024 21:00Overcast Clouds1°C13 mph, SW96%10000m1009hPa64%
26-Feb-2024 00:00Overcast Clouds0°C9 mph, S96%10000m1008hPa70%